Time;durP1;ratioP1;P1;durP2;ratioP2;P2;SDS_P1;SDS_P2;PMS_P1;PMS_P2;Temp;Humidity;BMP_temperature;BMP_pressure;BME280_temperature;BME280_humidity;BME280_pressure;Samples;Min_cycle;Max_cycle;Signal;HPM_P1;HPM_P2
2022/12/12 00:04:25;;;;;;;30.00;14.03;;;;;;;3.41;79.80;97851.16;4462682;78;43412;-81
2022/12/12 00:10:26;;;;;;;30.60;13.83;;;;;;;3.15;83.21;97852.12;4464662;78;43439;-83
2022/12/12 00:16:28;;;;;;;29.18;13.38;;;;;;;3.05;83.98;97842.77;4377898;80;28509;-82
2022/12/12 00:22:29;;;;;;;31.27;14.13;;;;;;;3.08;84.34;97840.73;4384470;80;44048;-83
2022/12/12 00:28:30;;;;;;;26.97;12.95;;;;;;;2.97;87.06;97837.72;4383721;80;43409;-83
2022/12/12 00:34:31;;;;;;;29.63;13.28;;;;;;;3.28;85.99;97848.09;4464064;78;43420;-82
2022/12/12 00:40:32;;;;;;;25.45;12.20;;;;;;;3.38;84.86;97844.95;4376533;80;42869;-83
2022/12/12 00:46:33;;;;;;;26.85;12.90;;;;;;;3.22;85.31;97847.59;4377082;80;43256;-83
2022/12/12 00:52:34;;;;;;;29.72;13.28;;;;;;;3.01;85.95;97834.94;4376221;81;43470;-81
2022/12/12 00:58:35;;;;;;;30.25;13.65;;;;;;;2.84;86.25;97837.75;4361313;81;43459;-82
2022/12/12 01:04:36;;;;;;;27.90;12.55;;;;;;;2.79;84.10;97829.92;4465534;78;43416;-81
2022/12/12 01:10:37;;;;;;;28.38;13.45;;;;;;;3.18;83.29;97831.27;4376349;80;43393;-81
2022/12/12 01:16:38;;;;;;;25.00;11.75;;;;;;;3.03;82.01;97818.80;4377196;81;43323;-81
2022/12/12 01:22:39;;;;;;;25.50;10.88;;;;;;;3.01;81.82;97816.84;4450551;78;42979;-82
2022/12/12 01:28:41;;;;;;;22.95;10.98;;;;;;;2.98;84.81;97819.93;4362221;81;43859;-83
2022/12/12 01:34:42;;;;;;;27.32;12.70;;;;;;;3.01;84.22;97820.33;4365578;81;43434;-81
2022/12/12 01:40:43;;;;;;;23.62;10.95;;;;;;;2.89;86.69;97810.08;4363474;80;43362;-81
2022/12/12 01:46:44;;;;;;;26.48;11.38;;;;;;;3.17;85.79;97815.03;4365979;81;43019;-82
2022/12/12 01:52:47;;;;;;;23.75;10.70;;;;;;;3.08;85.60;97814.98;4363558;81;43777;-80
2022/12/12 01:58:50;;;;;;;24.20;11.05;;;;;;;3.32;85.21;97809.92;4364297;80;43217;-81
2022/12/12 02:04:51;;;;;;;25.82;11.38;;;;;;;3.45;87.01;97809.86;4434837;79;43062;-83
2022/12/12 02:10:52;;;;;;;27.22;11.95;;;;;;;3.27;86.45;97805.25;4442620;78;43404;-84
2022/12/12 02:17:14;;;;;;;25.43;11.88;;;;;;;2.94;85.42;97807.59;4435815;78;43744;-81
2022/12/12 02:23:24;;;;;;;20.62;10.25;;;;;;;3.06;85.29;97808.54;4365807;81;44525;-82
2022/12/12 02:29:59;;;;;;;27.77;11.68;;;;;;;2.98;86.61;97811.97;4443147;80;44481;-82
2022/12/12 02:36:04;;;;;;;21.90;9.48;;;;;;;2.71;85.89;97810.25;4332427;80;28528;-83
2022/12/12 02:42:27;;;;;;;21.40;9.90;;;;;;;2.72;86.78;97808.42;4369360;80;28554;-85
2022/12/12 02:48:50;;;;;;;22.70;10.10;;;;;;;2.85;85.94;97807.52;4375433;80;44937;-79
2022/12/12 02:54:51;;;;;;;23.67;10.40;;;;;;;2.76;85.96;97802.48;4370500;80;44454;-82
2022/12/12 03:01:09;;;;;;;22.60;10.43;;;;;;;2.75;85.55;97794.19;4371482;80;44450;-83
2022/12/12 03:13:45;;;;;;;20.45;9.50;;;;;;;2.79;83.96;97799.40;4440699;79;43962;-84
2022/12/12 03:20:07;;;;;;;20.32;8.90;;;;;;;2.92;83.43;97794.55;4347810;81;43958;-84
2022/12/12 03:26:11;;;;;;;21.48;9.23;;;;;;;2.99;83.54;97797.16;4423573;79;43992;-83
2022/12/12 03:32:15;;;;;;;;;;;;;;;3.12;82.24;97803.42;4449643;79;28505;-84
2022/12/12 03:38:22;;;;;;;18.48;8.75;;;;;;;2.95;82.87;97795.14;4369081;81;44026;-83
2022/12/12 03:44:27;;;;;;;19.50;9.03;;;;;;;3.11;84.70;97797.28;4366592;81;43946;-85
2022/12/12 03:50:31;;;;;;;19.10;8.97;;;;;;;3.00;83.94;97797.95;4369248;81;28490;-84
2022/12/12 03:56:48;;;;;;;17.17;8.38;;;;;;;2.91;84.01;97792.09;4367633;81;51168;-85
2022/12/12 04:03:22;;;;;;;18.70;8.28;;;;;;;3.10;83.02;97797.52;4365571;81;28539;-84
2022/12/12 04:15:58;;;;;;;15.60;8.08;;;;;;;2.71;86.60;97798.30;4367396;81;43995;-84
2022/12/12 04:28:20;;;;;;;17.82;7.72;;;;;;;2.72;88.10;97794.62;4402904;81;43949;-84
2022/12/12 04:34:24;;;;;;;17.00;8.18;;;;;;;2.79;88.31;97790.61;4401725;81;43909;-84
2022/12/12 04:40:37;;;;;;;15.15;7.35;;;;;;;2.75;87.13;97788.08;4402684;81;28577;-83
2022/12/12 04:46:40;;;;;;;17.67;7.78;;;;;;;2.60;94.52;97794.98;4406160;81;43989;-80
2022/12/12 04:52:42;;;;;;;17.15;7.72;;;;;;;2.49;95.68;97795.94;4403423;81;43891;-82
2022/12/12 04:58:43;;;;;;;17.12;8.48;;;;;;;2.86;96.10;97801.19;4403424;81;44021;-81
2022/12/12 05:04:56;;;;;;;16.90;8.25;;;;;;;2.67;93.13;97810.38;4399066;81;43977;-82
2022/12/12 05:11:01;;;;;;;17.73;8.30;;;;;;;2.67;91.40;97806.89;4404126;81;44365;-83
2022/12/12 05:17:06;;;;;;;16.87;8.25;;;;;;;2.60;94.22;97810.41;4405285;81;28560;-81
2022/12/12 05:23:07;;;;;;;18.02;8.50;;;;;;;2.63;93.69;97803.34;4394533;81;43921;-81
2022/12/12 05:29:08;;;;;;;18.07;8.93;;;;;;;2.74;90.60;97801.85;4378538;81;43884;-79
2022/12/12 05:35:10;;;;;;;20.10;9.28;;;;;;;2.61;89.80;97809.88;4355321;81;43929;-81
2022/12/12 05:41:11;;;;;;;20.40;9.30;;;;;;;2.63;90.32;97811.80;4366847;80;43973;-83
2022/12/12 05:47:12;;;;;;;18.42;9.18;;;;;;;2.69;90.20;97808.82;4376317;80;43914;-80
2022/12/12 05:53:14;;;;;;;18.87;8.48;;;;;;;2.99;89.43;97813.09;4368022;81;43993;-79
2022/12/12 05:59:15;;;;;;;18.92;8.58;;;;;;;2.61;90.38;97813.86;4352769;80;43946;-80
2022/12/12 06:05:16;;;;;;;19.80;8.93;;;;;;;2.82;90.93;97814.59;4360036;80;43989;-82
2022/12/12 06:11:35;;;;;;;18.23;9.10;;;;;;;3.00;92.05;97821.36;4341831;80;43969;-83
2022/12/12 06:17:55;;;;;;;;;;;;;;;;;;;;;
2022/12/12 06:23:58;;;;;;;19.23;8.85;;;;;;;2.98;93.07;97833.20;4357264;80;43949;-89
2022/12/12 06:30:02;;;;;;;20.45;8.95;;;;;;;2.91;91.83;97830.06;4311542;81;28532;-83
2022/12/12 06:36:07;;;;;;;20.80;9.83;;;;;;;2.85;92.84;97839.38;4380624;80;44422;-80
2022/12/12 06:42:08;;;;;;;21.40;10.00;;;;;;;2.83;94.59;97846.75;4378827;81;28478;-85
2022/12/12 06:48:09;;;;;;;22.62;9.75;;;;;;;2.95;93.63;97851.70;4340088;80;44285;-84
2022/12/12 06:54:15;;;;;;;23.12;10.45;;;;;;;3.08;91.95;97858.00;4383979;80;44442;-85
2022/12/12 07:00:17;;;;;;;24.52;10.88;;;;;;;2.88;90.28;97854.38;4433806;80;42975;-84
2022/12/12 07:06:20;;;;;;;27.90;12.55;;;;;;;3.15;91.26;97861.41;4442454;80;43452;-84
2022/12/12 07:12:21;;;;;;;22.75;10.88;;;;;;;2.84;89.76;97861.65;4361808;80;44443;-84
2022/12/12 07:18:22;;;;;;;25.82;12.00;;;;;;;2.97;90.75;97862.12;4371970;80;43409;-84
2022/12/12 07:24:23;;;;;;;23.12;10.58;;;;;;;3.02;90.78;97863.61;4342839;80;44424;-84
2022/12/12 07:30:24;;;;;;;25.23;11.78;;;;;;;3.21;91.08;97865.89;4384275;80;43582;-84
2022/12/12 07:36:25;;;;;;;22.48;11.55;;;;;;;3.16;89.44;97868.36;4370089;81;43689;-84
2022/12/12 07:42:26;;;;;;;27.75;12.70;;;;;;;3.08;87.08;97866.77;4363664;80;43354;-87
2022/12/12 07:48:28;;;;;;;25.27;11.43;;;;;;;3.35;86.28;97860.80;4334195;80;43291;-84
2022/12/12 07:54:29;;;;;;;24.70;11.63;;;;;;;3.46;86.33;97865.96;4369448;81;43657;-84
2022/12/12 08:00:31;;;;;;;24.18;11.25;;;;;;;3.46;86.91;97869.95;4441270;79;43602;-83
2022/12/12 08:06:35;;;;;;;24.35;11.95;;;;;;;3.71;86.03;97871.02;4335365;80;28534;-84
2022/12/12 08:12:36;;;;;;;22.30;10.78;;;;;;;3.38;87.94;97872.02;4360659;81;28486;-84
2022/12/12 08:18:37;;;;;;;24.98;11.48;;;;;;;3.57;87.83;97873.75;4352851;81;28533;-85
2022/12/12 08:24:38;;;;;;;25.27;12.25;;;;;;;3.73;87.51;97878.27;4360895;81;43792;-84
2022/12/12 08:30:39;;;;;;;26.05;11.43;;;;;;;3.67;85.96;97886.59;4343777;81;28558;-85
2022/12/12 08:36:41;;;;;;;23.73;11.30;;;;;;;3.91;85.37;97884.16;4423485;80;42948;-85
2022/12/12 08:42:42;;;;;;;27.70;12.88;;;;;;;3.85;87.61;97887.67;4388055;80;28523;-84
2022/12/12 08:48:44;;;;;;;25.23;12.50;;;;;;;3.86;86.87;97891.98;4421478;79;28512;-84
2022/12/12 08:54:46;;;;;;;26.65;12.28;;;;;;;3.91;88.75;97888.15;4447434;79;28583;-85
2022/12/12 09:00:48;;;;;;;26.07;12.37;;;;;;;3.94;88.71;97889.56;4446502;79;28513;-85
2022/12/12 09:06:49;;;;;;;25.00;11.75;;;;;;;3.73;86.75;97890.23;4320167;82;28518;-84
2022/12/12 09:12:50;;;;;;;24.02;12.05;;;;;;;3.98;85.79;97884.94;4395172;81;28611;-85
2022/12/12 09:18:52;;;;;;;24.43;12.60;;;;;;;3.75;84.29;97890.31;4401814;81;28468;-85
2022/12/12 09:24:53;;;;;;;27.02;12.85;;;;;;;3.99;83.83;97897.70;4382003;80;28559;-85
2022/12/12 09:30:54;;;;;;;28.45;12.60;;;;;;;4.21;81.47;97895.48;4338861;81;28641;-86
2022/12/12 09:36:55;;;;;;;25.97;12.93;;;;;;;4.09;82.07;97899.36;4364122;81;28522;-85
2022/12/12 09:42:57;;;;;;;26.10;12.25;;;;;;;4.74;79.77;97897.34;4379740;80;28544;-85
2022/12/12 09:49:07;;;;;;;23.10;11.43;;;;;;;4.85;76.18;97897.93;4378374;80;28457;-86
2022/12/12 09:55:21;;;;;;;24.72;12.45;;;;;;;4.79;75.76;97895.34;4353171;81;28482;-86
2022/12/12 10:01:26;;;;;;;24.50;11.97;;;;;;;5.20;77.31;97891.18;4381809;80;28462;-84
2022/12/12 10:07:37;;;;;;;25.40;11.97;;;;;;;5.41;73.24;97895.20;4381520;80;28551;-84
2022/12/12 10:13:38;;;;;;;24.12;12.35;;;;;;;5.40;71.52;97894.91;4430533;79;28583;-85
2022/12/12 10:19:48;;;;;;;22.00;11.68;;;;;;;5.59;70.38;97890.87;4444185;78;28628;-85
2022/12/12 10:25:53;;;;;;;23.80;11.55;;;;;;;5.29;70.18;97893.83;4417618;78;28505;-85
2022/12/12 10:32:18;;;;;;;23.67;12.70;;;;;;;5.50;70.64;97885.05;4448497;78;28505;-85
2022/12/12 10:38:43;;;;;;;21.97;11.87;;;;;;;4.78;69.88;97888.39;4370242;80;28573;-85
2022/12/12 10:45:13;;;;;;;21.15;11.68;;;;;;;5.41;70.87;97890.41;4445230;79;28592;-86
2022/12/12 10:51:16;;;;;;;24.15;12.40;;;;;;;5.58;69.40;97891.41;4344662;80;28517;-85
2022/12/12 10:57:23;;;;;;;22.73;11.88;;;;;;;5.60;68.61;97879.70;4380080;80;28981;-85
2022/12/12 11:03:39;;;;;;;22.65;11.45;;;;;;;5.60;68.64;97884.48;4392490;80;28516;-85
2022/12/12 11:09:43;;;;;;;25.10;12.45;;;;;;;5.34;69.43;97882.50;4439221;80;28534;-85
2022/12/12 11:15:50;;;;;;;24.07;11.83;;;;;;;5.27;69.22;97892.42;4435925;78;28547;-85
2022/12/12 11:21:53;;;;;;;22.32;11.43;;;;;;;5.25;71.71;97887.30;4342185;81;28540;-85
2022/12/12 11:27:56;;;;;;;22.98;11.43;;;;;;;5.20;70.27;97885.02;4363402;80;28529;-86
2022/12/12 11:34:03;;;;;;;21.55;11.33;;;;;;;5.71;71.31;97875.70;4365952;80;28579;-86
2022/12/12 11:40:05;;;;;;;22.75;12.07;;;;;;;5.60;71.25;97876.48;4367120;80;28521;-86
2022/12/12 11:46:16;;;;;;;20.60;10.75;;;;;;;5.54;70.73;97870.21;4370194;81;28527;-86
2022/12/12 11:52:23;;;;;;;22.98;11.55;;;;;;;5.69;70.32;97875.13;4372901;81;28581;-86
2022/12/12 11:58:38;;;;;;;22.98;11.88;;;;;;;5.30;77.31;97889.30;4339463;81;28551;-86
2022/12/12 12:04:52;;;;;;;22.60;12.35;;;;;;;4.95;76.69;97886.77;4357316;81;28613;-86
2022/12/12 12:11:16;;;;;;;27.17;12.65;;;;;;;5.32;77.55;97887.75;4394059;80;28565;-86
2022/12/12 12:17:21;;;;;;;21.87;11.60;;;;;;;5.69;76.58;97885.00;4335256;80;28492;-86
2022/12/12 12:23:32;;;;;;;24.17;11.33;;;;;;;5.12;76.04;97888.31;4337210;80;33993;-85
2022/12/12 12:29:48;;;;;;;21.40;11.65;;;;;;;4.96;82.06;97893.73;4348372;81;28537;-85
2022/12/12 12:35:56;;;;;;;23.75;11.68;;;;;;;4.61;80.38;97888.97;4354049;81;28534;-85
2022/12/12 12:42:20;;;;;;;20.37;10.65;;;;;;;4.85;82.85;97886.48;4334227;81;28543;-86
2022/12/12 12:48:25;;;;;;;20.32;11.03;;;;;;;5.03;80.97;97885.66;4368979;81;28545;-84
2022/12/12 12:54:30;;;;;;;21.67;11.13;;;;;;;4.98;82.60;97886.83;4368913;81;34721;-85
2022/12/12 13:00:31;;;;;;;20.65;10.55;;;;;;;4.20;82.52;97883.22;4365430;81;28588;-84
2022/12/12 13:06:48;;;;;;;22.58;11.28;;;;;;;4.49;85.32;97896.05;4344255;81;28524;-85
2022/12/12 13:13:02;;;;;;;23.85;11.57;;;;;;;4.31;86.72;97905.63;4370142;81;28499;-84
2022/12/12 13:19:07;;;;;;;20.10;10.15;;;;;;;4.28;88.69;97906.89;4358455;80;28486;-84
2022/12/12 13:25:12;;;;;;;19.80;10.80;;;;;;;4.43;88.06;97912.39;4393015;80;28554;-84
2022/12/12 13:31:40;;;;;;;21.43;10.67;;;;;;;4.85;88.03;97914.45;4360154;81;28492;-84
2022/12/12 13:37:45;;;;;;;22.22;11.33;;;;;;;4.65;86.78;97915.97;4470147;78;28506;-85
2022/12/12 13:43:55;;;;;;;21.77;10.73;;;;;;;4.29;85.94;97918.34;4386955;80;28525;-85
2022/12/12 13:50:12;;;;;;;21.30;10.88;;;;;;;4.40;85.10;97929.59;4344701;80;44498;-85
2022/12/12 13:56:33;;;;;;;19.65;10.60;;;;;;;4.48;85.78;97935.19;4442050;78;28568;-84
2022/12/12 14:02:40;;;;;;;20.52;10.65;;;;;;;4.10;85.52;97937.42;4317320;81;28497;-85
2022/12/12 14:08:47;;;;;;;23.70;11.83;;;;;;;4.46;86.49;97943.87;4370016;81;28522;-85
2022/12/12 14:14:54;;;;;;;21.17;10.72;;;;;;;3.74;86.04;97948.48;4358441;81;29463;-85
2022/12/12 14:21:01;;;;;;;21.50;11.25;;;;;;;4.21;88.35;97949.20;4349888;81;28517;-85
2022/12/12 14:27:03;;;;;;;20.57;11.10;;;;;;;3.91;88.58;97958.63;4344626;81;44517;-85
2022/12/12 14:33:18;;;;;;;25.90;12.10;;;;;;;4.08;89.30;97957.58;4369515;81;28576;-85
2022/12/12 14:39:38;;;;;;;27.52;13.18;;;;;;;3.81;90.58;97959.10;4407209;81;43370;-84
2022/12/12 14:45:52;;;;;;;25.10;12.65;;;;;;;3.81;90.71;97967.58;4407350;81;28635;-86
2022/12/12 14:51:55;;;;;;;23.32;11.57;;;;;;;3.70;90.18;97970.42;4407512;81;28572;-85
2022/12/12 14:57:56;;;;;;;26.17;13.60;;;;;;;3.98;89.25;97970.55;4404134;81;42932;-85
2022/12/12 15:03:58;;;;;;;26.10;11.88;;;;;;;3.62;91.38;97980.76;4390894;81;43125;-85
2022/12/12 15:09:59;;;;;;;25.75;12.68;;;;;;;3.63;91.77;97986.38;4388821;81;28532;-85
2022/12/12 15:16:00;;;;;;;26.62;12.33;;;;;;;3.90;89.39;97984.92;4377244;81;28567;-86
2022/12/12 15:22:01;;;;;;;27.75;13.50;;;;;;;3.63;90.36;97999.66;4372594;81;28512;-85
2022/12/12 15:28:03;;;;;;;25.60;12.50;;;;;;;3.68;90.65;98001.19;4363078;80;28566;-84
2022/12/12 15:34:28;;;;;;;28.67;12.98;;;;;;;3.61;92.51;98001.23;4335769;80;43438;-84
2022/12/12 15:40:31;;;;;;;25.45;12.10;;;;;;;3.76;92.32;97997.47;4187598;84;28937;-84
2022/12/12 15:46:32;;;;;;;25.90;13.28;;;;;;;3.88;90.68;98007.72;4378972;80;28536;-85
2022/12/12 15:52:35;;;;;;;26.15;13.62;;;;;;;3.35;93.43;98009.59;4376683;81;28520;-84
2022/12/12 15:58:42;;;;;;;27.05;13.08;;;;;;;3.86;94.11;98009.78;4462217;78;43417;-85
2022/12/12 16:04:47;;;;;;;27.30;12.90;;;;;;;3.51;92.55;98015.48;4415558;80;43433;-87
2022/12/12 16:10:51;;;;;;;25.80;13.43;;;;;;;3.59;94.05;98024.55;4348586;80;28546;-85
2022/12/12 16:16:56;;;;;;;28.52;13.60;;;;;;;3.64;94.05;98029.20;4451709;78;28543;-84
2022/12/12 16:23:09;;;;;;;26.50;13.47;;;;;;;3.83;93.12;98031.49;4467709;78;28529;-84
2022/12/12 16:29:10;;;;;;;29.37;13.32;;;;;;;3.79;91.44;98042.23;4350597;81;43453;-85
2022/12/12 16:35:20;;;;;;;26.05;12.25;;;;;;;4.03;88.78;98038.02;4440930;78;28501;-85
2022/12/12 16:41:21;;;;;;;23.57;12.28;;;;;;;3.96;88.05;98045.25;4428204;78;43263;-81
2022/12/12 16:47:23;;;;;;;28.42;13.10;;;;;;;3.92;88.33;98041.89;4451024;78;43430;-81
2022/12/12 16:53:26;;;;;;;26.90;12.70;;;;;;;4.07;86.58;98061.03;4447482;78;28567;-81
2022/12/12 16:59:27;;;;;;;34.25;15.55;;;;;;;4.25;85.51;98060.31;4374873;80;28548;-82
2022/12/12 17:05:31;;;;;;;30.00;13.85;;;;;;;4.19;84.86;98064.64;4393050;78;43442;-81
2022/12/12 17:11:32;;;;;;;28.65;13.48;;;;;;;4.39;84.52;98074.34;4440750;78;28552;-80
2022/12/12 17:17:37;;;;;;;28.67;14.07;;;;;;;4.22;85.69;98083.86;4425844;78;28536;-81
2022/12/12 17:23:39;;;;;;;26.35;13.20;;;;;;;4.27;85.79;98081.39;4456303;78;28584;-81
2022/12/12 17:29:40;;;;;;;30.85;15.43;;;;;;;4.39;87.82;98090.32;4436610;78;44160;-80
2022/12/12 17:35:42;;;;;;;30.23;15.28;;;;;;;4.31;86.03;98090.56;4434679;78;44213;-79
2022/12/12 17:41:43;;;;;;;32.60;15.93;;;;;;;4.27;87.90;98094.70;4435853;79;44225;-80
2022/12/12 17:47:44;;;;;;;34.03;15.32;;;;;;;4.41;88.65;98102.09;4347128;80;28498;-82
2022/12/12 17:53:45;;;;;;;32.78;16.02;;;;;;;4.37;91.46;98096.37;4318579;80;28513;-81
2022/12/12 17:59:47;;;;;;;32.13;15.38;;;;;;;4.09;89.39;98098.07;4443716;79;44135;-81
2022/12/12 18:06:05;;;;;;;31.45;15.05;;;;;;;4.04;90.75;98107.48;4436372;80;28513;-81
2022/12/12 18:12:14;;;;;;;31.60;14.90;;;;;;;4.15;90.34;98110.50;4426837;80;28525;-82
2022/12/12 18:18:15;;;;;;;32.08;15.35;;;;;;;3.97;89.71;98111.20;4355499;81;44066;-81
2022/12/12 18:24:19;;;;;;;30.12;15.45;;;;;;;4.26;92.50;98123.67;4328086;81;28516;-82
2022/12/12 18:30:20;;;;;;;33.38;15.68;;;;;;;4.19;93.11;98122.38;4355914;81;44070;-79
2022/12/12 18:36:25;;;;;;;31.87;16.73;;;;;;;4.27;93.00;98131.45;4355984;81;44067;-82
2022/12/12 18:42:26;;;;;;;35.78;16.45;;;;;;;4.24;92.70;98135.05;4428031;78;28488;-80
2022/12/12 18:48:27;;;;;;;32.73;15.35;;;;;;;4.21;92.19;98143.42;4439724;78;28508;-81
2022/12/12 18:54:29;;;;;;;36.28;17.90;;;;;;;4.24;92.39;98153.67;4375019;81;28654;-81
2022/12/12 19:00:30;;;;;;;37.38;17.37;;;;;;;4.27;91.33;98157.23;4360228;81;44413;-80
2022/12/12 19:06:34;;;;;;;34.05;16.62;;;;;;;4.49;90.36;98164.40;4361816;81;28560;-81
2022/12/12 19:12:36;;;;;;;34.40;16.67;;;;;;;4.63;89.15;98159.80;4354773;81;28533;-84
2022/12/12 19:18:38;;;;;;;32.17;17.32;;;;;;;4.60;88.03;98171.70;4366007;81;28555;-82
2022/12/12 19:24:39;;;;;;;32.58;16.80;;;;;;;4.59;88.67;98191.88;4435216;78;28552;-80
2022/12/12 19:30:43;;;;;;;35.40;16.50;;;;;;;4.69;88.53;98192.23;4356307;80;28545;-81
2022/12/12 19:36:44;;;;;;;36.65;16.50;;;;;;;4.47;88.50;98202.37;4370231;80;28565;-83
2022/12/12 19:42:50;;;;;;;35.58;16.73;;;;;;;4.57;89.38;98208.59;4438773;78;28576;-83
2022/12/12 19:48:57;;;;;;;34.95;16.37;;;;;;;4.60;88.10;98212.14;4443628;78;28587;-82
2022/12/12 19:54:58;;;;;;;32.58;16.00;;;;;;;4.59;87.57;98217.17;4348143;80;28857;-85
2022/12/12 20:01:09;;;;;;;29.35;15.00;;;;;;;4.82;88.47;98223.30;4369821;80;28529;-82
2022/12/12 20:07:12;;;;;;;31.25;16.30;;;;;;;4.62;87.46;98234.05;4358552;80;28555;-81
2022/12/12 20:13:13;;;;;;;31.73;15.58;;;;;;;5.00;86.11;98239.09;4413219;79;28556;-82
2022/12/12 20:19:15;;;;;;;29.95;15.38;;;;;;;4.72;85.94;98246.39;4371297;80;28634;-82
2022/12/12 20:25:16;;;;;;;28.60;14.07;;;;;;;5.03;86.62;98246.12;4359885;80;28541;-82
2022/12/12 20:31:21;;;;;;;28.57;14.45;;;;;;;4.84;86.63;98261.69;4362977;81;28508;-83
2022/12/12 20:37:22;;;;;;;27.13;14.13;;;;;;;5.14;85.65;98262.45;4409218;79;28593;-83
2022/12/12 20:43:28;;;;;;;;;;;;;;;5.01;85.79;98264.70;4449730;79;28611;-82
2022/12/12 20:49:32;;;;;;;24.12;11.73;;;;;;;5.02;86.30;98272.99;4445714;79;20678;-82
2022/12/12 20:55:34;;;;;;;23.70;11.48;;;;;;;5.13;85.33;98275.47;4355190;81;43693;-83
2022/12/12 21:01:36;;;;;;;25.35;12.47;;;;;;;5.08;83.52;98279.31;4369051;80;28509;-84
2022/12/12 21:07:37;;;;;;;19.02;10.30;;;;;;;4.97;83.61;98296.78;4347995;81;28524;-85
2022/12/12 21:20:53;;;;;;;18.02;9.58;;;;;;;4.53;85.00;98302.70;4352334;81;28565;-86
2022/12/12 21:26:53;;;;;;;17.17;8.73;;;;;;;4.93;83.53;98316.89;4355668;81;28496;-88
2022/12/12 21:32:55;;;;;;;15.25;8.38;;;;;;;4.55;84.50;98329.12;4347245;81;28521;-88
2022/12/12 21:39:02;;;;;;;17.87;9.17;;;;;;;4.91;82.90;98330.94;4323931;81;37280;-87
2022/12/12 21:45:07;;;;;;;17.55;8.85;;;;;;;4.64;83.07;98327.86;4366449;81;28482;-85
2022/12/12 21:51:12;;;;;;;17.40;9.33;;;;;;;4.84;83.27;98334.44;4363344;81;28505;-86
2022/12/12 21:57:20;;;;;;;17.85;10.13;;;;;;;4.87;83.21;98340.66;4341158;81;28524;-85
2022/12/12 22:03:23;;;;;;;17.95;9.65;;;;;;;4.63;85.60;98353.36;4337434;81;28504;-87
2022/12/12 22:09:26;;;;;;;18.70;9.73;;;;;;;4.66;83.69;98348.44;4334293;81;28595;-86
2022/12/12 22:15:27;;;;;;;17.27;9.20;;;;;;;4.80;83.09;98349.22;4336777;81;28528;-87
2022/12/12 22:21:28;;;;;;;13.98;7.78;;;;;;;4.79;81.12;98351.58;4348079;81;28466;-85
2022/12/12 22:27:34;;;;;;;15.72;8.30;;;;;;;4.69;82.28;98358.66;4343445;81;28493;-85
2022/12/12 22:33:36;;;;;;;15.00;7.15;;;;;;;4.44;81.79;98360.68;4407247;81;28532;-87
2022/12/12 22:39:37;;;;;;;14.63;7.78;;;;;;;4.39;81.69;98367.12;4390051;81;28536;-86
2022/12/12 22:45:39;;;;;;;11.05;6.42;;;;;;;4.53;80.21;98381.23;4397712;81;28539;-86
2022/12/12 22:51:40;;;;;;;16.17;7.97;;;;;;;4.63;78.10;98380.79;4400091;81;43938;-86
2022/12/12 22:57:44;;;;;;;14.20;7.17;;;;;;;4.27;79.66;98386.91;4400049;81;28652;-85
2022/12/12 23:03:45;;;;;;;15.88;7.25;;;;;;;4.39;80.25;98400.92;4383295;81;28587;-86
2022/12/12 23:09:53;;;;;;;12.03;7.05;;;;;;;4.44;78.63;98399.28;4394216;81;28523;-86
2022/12/12 23:15:54;;;;;;;12.40;6.30;;;;;;;4.38;78.30;98412.59;4375879;81;28530;-86
2022/12/12 23:21:55;;;;;;;12.85;6.97;;;;;;;4.46;77.81;98407.87;4408656;81;28497;-87
2022/12/12 23:27:56;;;;;;;12.75;6.12;;;;;;;4.44;76.60;98414.41;4365419;81;28577;-87
2022/12/12 23:34:00;;;;;;;13.78;6.50;;;;;;;4.06;80.82;98423.84;4456887;78;28516;-87
2022/12/12 23:40:04;;;;;;;11.53;5.75;;;;;;;4.20;80.32;98426.00;4435638;78;28575;-87
2022/12/12 23:46:26;;;;;;;11.20;5.70;;;;;;;-148.98;0.00;96893.05;4411893;80;28568;-87
2022/12/12 23:52:15;;;;;;;12.15;5.87;;;;;;;-148.98;0.00;110072.05;4353453;82;28611;-92
2022/12/12 23:58:16;;;;;;;9.98;6.40;;;;;;;4.21;77.02;98440.11;4376220;80;28606;-88
